Time;durP1;ratioP1;P1;durP2;ratioP2;P2;SDS_P1;SDS_P2;PMS_P1;PMS_P2;Temp;Humidity;BMP_temperature;BMP_pressure;BME280_temperature;BME280_humidity;BME280_pressure;Samples;Min_cycle;Max_cycle;Signal;HPM_P1;HPM_P2
2022/08/07 00:00:12;;;;;;;5.80;3.40;;;16.10;1.00;;;;;;5084203;28;21230;-77
2022/08/07 00:02:43;;;;;;;3.87;3.47;;;16.10;1.00;;;;;;5084340;28;20418;-77
2022/08/07 00:05:12;;;;;;;3.80;3.33;;;16.10;1.00;;;;;;5087321;28;20474;-77
2022/08/07 00:07:41;;;;;;;4.60;3.60;;;16.10;1.00;;;;;;5086424;28;20427;-76
2022/08/07 00:10:09;;;;;;;5.47;4.30;;;16.20;1.00;;;;;;5087557;28;20457;-80
2022/08/07 00:12:42;;;;;;;5.77;3.90;;;16.20;1.00;;;;;;5087792;28;20973;-78
2022/08/07 00:15:11;;;;;;;4.17;3.30;;;16.20;1.00;;;;;;5078209;28;20471;-80
2022/08/07 00:17:45;;;;;;;4.47;3.20;;;16.10;1.00;;;;;;5088900;28;20442;-77
2022/08/07 00:20:13;;;;;;;6.00;3.97;;;16.10;1.00;;;;;;5089433;28;20542;-78
2022/08/07 00:22:41;;;;;;;4.20;3.53;;;16.00;1.00;;;;;;5086716;28;20419;-81
2022/08/07 00:25:11;;;;;;;5.53;3.80;;;16.00;1.00;;;;;;5075718;28;20986;-78
2022/08/07 00:27:41;;;;;;;4.53;4.13;;;15.90;1.00;;;;;;5085947;28;20493;-79
2022/08/07 00:30:09;;;;;;;5.63;4.10;;;15.90;1.00;;;;;;5085475;28;20477;-81
2022/08/07 00:32:40;;;;;;;6.27;4.23;;;15.80;1.00;;;;;;5088066;28;20456;-79
2022/08/07 00:35:07;;;;;;;5.70;4.87;;;15.90;1.00;;;;;;5090366;28;20569;-78
2022/08/07 00:37:40;;;;;;;7.90;4.20;;;15.90;1.00;;;;;;5087738;28;20553;-78
2022/08/07 00:40:07;;;;;;;5.43;3.97;;;15.90;1.00;;;;;;5086922;28;22023;-76
2022/08/07 00:42:34;;;;;;;10.03;5.50;;;15.90;1.00;;;;;;5086277;28;20447;-79
2022/08/07 00:45:03;;;;;;;4.10;3.70;;;15.90;1.00;;;;;;5085721;28;20569;-78
2022/08/07 00:47:30;;;;;;;5.00;4.30;;;15.90;1.00;;;;;;5085287;28;20460;-77
2022/08/07 00:50:01;;;;;;;4.80;4.40;;;15.90;1.00;;;;;;5085901;28;20608;-77
2022/08/07 00:52:28;;;;;;;6.90;4.90;;;15.90;1.00;;;;;;5085088;28;20489;-77
2022/08/07 00:55:01;;;;;;;7.27;5.07;;;15.80;1.00;;;;;;5078878;28;20462;-80
2022/08/07 00:57:28;;;;;;;7.27;4.60;;;15.80;1.00;;;;;;5090350;28;20485;-79
2022/08/07 01:00:00;;;;;;;4.80;4.30;;;15.80;1.00;;;;;;5086315;28;20537;-77
2022/08/07 01:02:27;;;;;;;5.00;3.77;;;15.80;1.00;;;;;;5087217;28;20456;-78
2022/08/07 01:04:54;;;;;;;5.40;4.20;;;15.70;1.00;;;;;;5084566;28;20565;-77
2022/08/07 01:07:23;;;;;;;4.80;4.30;;;15.70;1.00;;;;;;5079664;28;20415;-80
2022/08/07 01:09:50;;;;;;;4.97;4.00;;;15.60;1.00;;;;;;5082445;28;20864;-77
2022/08/07 01:12:21;;;;;;;3.70;3.40;;;15.50;1.00;;;;;;5088749;28;20410;-81
2022/08/07 01:14:48;;;;;;;6.10;4.37;;;15.40;1.00;;;;;;5076749;28;20470;-77
2022/08/07 01:17:16;;;;;;;4.43;3.90;;;15.30;1.00;;;;;;5085937;28;20519;-78
2022/08/07 01:19:43;;;;;;;4.00;3.37;;;15.30;1.00;;;;;;5086619;28;20532;-80
2022/08/07 01:22:12;;;;;;;4.40;3.70;;;15.20;1.00;;;;;;5081537;28;20472;-78
2022/08/07 01:24:42;;;;;;;4.80;3.60;;;15.20;1.00;;;;;;5085321;28;20473;-81
2022/08/07 01:27:09;;;;;;;4.30;3.53;;;15.10;1.00;;;;;;5080495;28;20473;-81
2022/08/07 01:29:40;;;;;;;5.37;4.00;;;15.10;1.00;;;;;;5085685;28;20997;-78
2022/08/07 01:32:07;;;;;;;4.00;3.53;;;15.10;1.00;;;;;;5080753;28;20468;-81
2022/08/07 01:34:34;;;;;;;4.97;3.60;;;15.00;1.00;;;;;;5085591;28;20473;-80
2022/08/07 01:37:02;;;;;;;4.20;3.80;;;15.00;1.00;;;;;;5087139;28;20441;-77
2022/08/07 01:39:31;;;;;;;4.53;3.93;;;15.00;1.00;;;;;;5071380;28;20568;-78
2022/08/07 01:41:59;;;;;;;4.47;3.83;;;15.00;1.00;;;;;;5083666;28;20463;-77
2022/08/07 01:44:26;;;;;;;3.70;3.40;;;14.90;1.00;;;;;;5083866;28;20474;-81
2022/08/07 01:46:53;;;;;;;3.40;3.10;;;14.90;1.00;;;;;;5078631;28;20464;-77
2022/08/07 01:49:22;;;;;;;4.43;3.70;;;14.90;1.00;;;;;;5085892;28;20813;-77
2022/08/07 01:51:50;;;;;;;3.37;3.07;;;14.90;1.00;;;;;;5086994;28;20813;-78
2022/08/07 01:54:22;;;;;;;6.77;4.80;;;14.90;1.00;;;;;;5080182;28;20433;-77
2022/08/07 01:57:04;;;;;;;4.23;3.37;;;14.90;1.00;;;;;;5088036;28;22090;-77
2022/08/07 01:59:42;;;;;;;4.60;3.87;;;14.90;1.00;;;;;;5088752;28;20450;-78
2022/08/07 02:02:18;;;;;;;4.67;3.40;;;14.90;1.00;;;;;;5083517;28;20459;-80
2022/08/07 02:04:52;;;;;;;4.70;3.70;;;14.90;1.00;;;;;;5087878;28;20462;-78
2022/08/07 02:07:26;;;;;;;3.93;3.53;;;14.80;1.00;;;;;;5089930;28;21353;-81
2022/08/07 02:09:58;;;;;;;4.10;3.60;;;14.70;1.00;;;;;;5088343;28;21980;-77
2022/08/07 02:12:30;;;;;;;3.27;2.97;;;14.70;1.00;;;;;;5086418;28;20849;-77
2022/08/07 02:15:03;;;;;;;3.53;3.23;;;14.60;1.00;;;;;;5086978;28;20446;-81
2022/08/07 02:17:30;;;;;;;4.00;3.60;;;14.60;1.00;;;;;;5084224;28;20466;-80
2022/08/07 02:20:07;;;;;;;4.97;3.93;;;14.50;1.00;;;;;;5083326;28;20477;-80
2022/08/07 02:22:41;;;;;;;3.80;3.50;;;14.50;1.00;;;;;;5087975;28;20490;-78
2022/08/07 02:25:10;;;;;;;4.47;3.57;;;14.50;1.00;;;;;;5085637;28;20466;-77
2022/08/07 02:28:00;;;;;;;4.03;3.63;;;14.60;1.00;;;;;;5088691;28;20427;-79
2022/08/07 02:30:28;;;;;;;4.30;3.90;;;14.60;1.00;;;;;;5089057;28;20999;-78
2022/08/07 02:33:01;;;;;;;4.40;4.00;;;14.60;1.00;;;;;;5087507;28;20925;-78
2022/08/07 02:35:29;;;;;;;4.40;4.00;;;14.60;1.00;;;;;;5089176;28;20481;-77
2022/08/07 02:38:03;;;;;;;4.80;4.40;;;14.50;1.00;;;;;;5085458;28;20434;-80
2022/08/07 02:40:31;;;;;;;4.20;3.80;;;14.50;1.00;;;;;;5089456;28;20542;-79
2022/08/07 02:43:03;;;;;;;4.80;3.80;;;14.50;1.00;;;;;;5088298;28;20423;-80
2022/08/07 02:45:33;;;;;;;4.43;3.80;;;14.60;1.00;;;;;;5086748;28;20462;-81
2022/08/07 02:48:02;;;;;;;4.90;3.87;;;14.60;1.00;;;;;;5088621;28;20417;-79
2022/08/07 02:50:30;;;;;;;5.03;4.00;;;14.60;1.00;;;;;;5087600;28;20478;-76
2022/08/07 02:53:04;;;;;;;3.67;3.37;;;14.70;1.00;;;;;;5086244;28;20463;-79
2022/08/07 02:55:35;;;;;;;4.77;4.37;;;14.60;1.00;;;;;;5079256;28;20470;-77
2022/08/07 02:58:10;;;;;;;6.00;4.10;;;14.60;1.00;;;;;;5086828;28;20499;-77
2022/08/07 03:00:42;;;;;;;4.33;3.93;;;14.60;1.00;;;;;;5086308;28;20462;-80
2022/08/07 03:03:11;;;;;;;7.17;3.57;;;14.50;1.00;;;;;;5079578;28;20494;-80
2022/08/07 03:05:43;;;;;;;4.57;3.83;;;14.50;1.00;;;;;;5086544;28;20444;-80
2022/08/07 03:08:11;;;;;;;3.90;3.50;;;14.50;1.00;;;;;;5084187;28;20469;-79
2022/08/07 03:10:42;;;;;;;3.80;3.27;;;14.40;1.00;;;;;;5089222;28;20461;-78
2022/08/07 03:13:10;;;;;;;4.67;3.33;;;14.40;1.00;;;;;;5085526;28;20589;-79
2022/08/07 03:15:43;;;;;;;5.07;3.20;;;14.40;1.00;;;;;;5085377;28;20443;-80
2022/08/07 03:18:11;;;;;;;4.70;4.30;;;14.40;1.00;;;;;;5075173;28;20486;-79
2022/08/07 03:20:42;;;;;;;3.63;3.33;;;14.40;1.00;;;;;;5086580;28;20425;-79
2022/08/07 03:23:09;;;;;;;5.20;3.77;;;14.40;1.00;;;;;;5087111;28;20490;-82
2022/08/07 03:25:42;;;;;;;6.50;4.67;;;14.40;1.00;;;;;;5089471;28;20472;-79
2022/08/07 03:28:13;;;;;;;3.60;3.30;;;14.40;1.00;;;;;;5088376;28;20445;-76
2022/08/07 03:30:42;;;;;;;4.07;3.73;;;14.40;1.00;;;;;;5071883;28;20423;-76
2022/08/07 03:33:10;;;;;;;3.50;3.20;;;14.40;1.00;;;;;;5080825;28;20578;-77
2022/08/07 03:35:44;;;;;;;9.30;4.00;;;14.40;1.00;;;;;;5085479;28;20439;-78
2022/08/07 03:38:12;;;;;;;4.10;3.40;;;14.30;1.00;;;;;;5073151;28;20461;-79
2022/08/07 03:40:42;;;;;;;4.50;4.10;;;14.30;1.00;;;;;;5083233;28;20433;-79
2022/08/07 03:43:13;;;;;;;6.83;3.23;;;14.40;1.00;;;;;;5088576;28;20463;-80
2022/08/07 03:45:43;;;;;;;3.30;3.00;;;14.40;1.00;;;;;;5087178;28;20490;-77
2022/08/07 03:48:10;;;;;;;4.70;3.60;;;14.40;1.00;;;;;;5074210;28;20447;-79
2022/08/07 03:50:42;;;;;;;3.60;3.30;;;14.30;1.00;;;;;;5083774;28;20510;-79
2022/08/07 03:53:09;;;;;;;8.10;3.90;;;14.30;1.00;;;;;;5083330;28;20467;-81
2022/08/07 03:55:42;;;;;;;6.70;6.00;;;14.30;1.00;;;;;;5073842;28;20447;-79
2022/08/07 03:58:11;;;;;;;3.70;3.40;;;14.20;1.00;;;;;;5058685;28;20454;-77
2022/08/07 04:00:42;;;;;;;6.60;5.83;;;14.20;1.00;;;;;;5080664;28;20483;-77
2022/08/07 04:03:09;;;;;;;4.30;3.80;;;14.20;1.00;;;;;;5075237;28;20454;-78
2022/08/07 04:05:41;;;;;;;3.90;3.60;;;14.20;1.00;;;;;;5067092;28;20999;-78
2022/08/07 04:08:11;;;;;;;5.03;3.10;;;14.20;1.00;;;;;;5086914;28;20458;-80
2022/08/07 04:10:43;;;;;;;5.10;3.77;;;14.10;1.00;;;;;;5075174;28;20415;-80
2022/08/07 04:13:13;;;;;;;4.87;3.73;;;14.20;1.00;;;;;;5075383;28;20974;-80
2022/08/07 04:15:43;;;;;;;5.20;4.70;;;14.20;1.00;;;;;;5073085;28;20473;-80
2022/08/07 04:18:11;;;;;;;4.57;4.10;;;14.20;1.00;;;;;;5077471;28;20451;-80
2022/08/07 04:20:42;;;;;;;3.97;3.57;;;14.20;1.00;;;;;;5071182;28;20450;-80
2022/08/07 04:23:10;;;;;;;4.73;4.17;;;14.20;1.00;;;;;;5076672;28;20458;-77
2022/08/07 04:25:44;;;;;;;4.03;3.70;;;14.20;1.00;;;;;;5082852;28;20438;-77
2022/08/07 04:28:15;;;;;;;3.70;3.40;;;14.20;1.00;;;;;;5072853;28;20513;-78
2022/08/07 04:30:48;;;;;;;4.83;4.43;;;14.20;1.00;;;;;;5084914;28;20435;-78
2022/08/07 04:33:16;;;;;;;5.23;3.97;;;14.20;1.00;;;;;;5082108;28;21326;-77
2022/08/07 04:35:46;;;;;;;5.00;3.80;;;14.30;1.00;;;;;;5084432;28;20471;-81
2022/08/07 04:38:13;;;;;;;4.47;4.07;;;14.30;1.00;;;;;;5086202;28;20458;-80
2022/08/07 04:40:44;;;;;;;4.70;4.27;;;14.40;1.00;;;;;;5087303;28;20477;-80
2022/08/07 04:43:14;;;;;;;5.37;3.90;;;14.40;1.00;;;;;;5087093;28;20512;-77
2022/08/07 04:46:03;;;;;;;7.77;3.90;;;14.50;1.00;;;;;;5089434;28;20418;-77
2022/08/07 04:48:42;;;;;;;4.10;3.80;;;14.50;1.00;;;;;;5073645;28;20454;-80
2022/08/07 04:51:15;;;;;;;8.63;4.23;;;14.50;1.00;;;;;;5086500;28;21365;-78
2022/08/07 04:53:52;;;;;;;6.63;4.87;;;14.60;1.00;;;;;;5088371;28;20414;-80
2022/08/07 04:56:27;;;;;;;5.17;4.50;;;14.60;1.00;;;;;;5086995;28;20447;-80
2022/08/07 04:59:03;;;;;;;4.30;3.90;;;14.70;1.00;;;;;;5080565;28;21042;-79
2022/08/07 05:01:54;;;;;;;4.60;4.17;;;14.80;1.00;;;;;;5084877;28;20439;-81
2022/08/07 05:04:31;;;;;;;4.70;4.10;;;14.80;1.00;;;;;;5079990;28;20430;-78
2022/08/07 05:07:11;;;;;;;4.80;4.30;;;15.00;1.00;;;;;;5087446;28;20434;-78
2022/08/07 05:09:53;;;;;;;4.40;3.20;;;15.00;1.00;;;;;;5085346;28;20421;-78
2022/08/07 05:12:28;;;;;;;4.80;4.30;;;15.10;1.00;;;;;;5087983;28;20414;-77
2022/08/07 05:15:15;;;;;;;6.60;4.20;;;15.20;1.00;;;;;;5081838;28;20985;-77
2022/08/07 05:17:45;;;;;;;4.40;2.90;;;15.30;1.00;;;;;;5083538;28;20441;-79
2022/08/07 05:20:23;;;;;;;2.80;2.30;;;15.40;1.00;;;;;;5085361;28;21328;-80
2022/08/07 05:22:52;;;;;;;3.33;2.93;;;15.50;1.00;;;;;;5081599;28;20462;-81
2022/08/07 05:25:25;;;;;;;4.23;2.80;;;15.60;1.00;;;;;;5088137;28;20468;-77
2022/08/07 05:27:54;;;;;;;3.10;2.80;;;15.60;1.00;;;;;;5087207;28;21264;-81
2022/08/07 05:30:25;;;;;;;4.80;3.70;;;15.80;1.00;;;;;;5089757;28;20428;-81
2022/08/07 05:32:53;;;;;;;4.13;3.00;;;15.90;1.00;;;;;;5088129;28;20903;-77
2022/08/07 05:35:21;;;;;;;3.20;2.70;;;16.00;1.00;;;;;;5091579;28;20427;-81
2022/08/07 05:37:52;;;;;;;3.87;3.10;;;16.10;1.00;;;;;;5089450;28;20486;-78
2022/08/07 05:40:19;;;;;;;3.23;2.93;;;16.20;1.00;;;;;;5088056;28;20446;-78
2022/08/07 05:42:49;;;;;;;3.83;2.47;;;16.30;1.00;;;;;;5091437;28;20458;-80
2022/08/07 05:45:19;;;;;;;4.23;2.70;;;16.40;1.00;;;;;;5090731;28;20464;-80
2022/08/07 05:47:52;;;;;;;4.43;2.57;;;16.60;1.00;;;;;;5069455;28;20450;-80
2022/08/07 05:50:23;;;;;;;4.93;2.90;;;16.70;1.00;;;;;;5089045;28;20427;-84
2022/08/07 05:52:49;;;;;;;6.17;3.13;;;16.80;1.00;;;;;;5081035;28;20469;-79
2022/08/07 05:55:17;;;;;;;2.97;2.23;;;16.90;1.00;;;;;;5089713;28;20542;-78
2022/08/07 05:57:46;;;;;;;3.90;2.70;;;17.10;1.00;;;;;;5078968;28;20470;-78
2022/08/07 06:00:13;;;;;;;2.50;2.23;;;17.10;1.00;;;;;;5063969;28;20541;-78
2022/08/07 06:02:49;;;;;;;3.53;2.73;;;17.20;1.00;;;;;;5086902;28;20463;-77
2022/08/07 06:05:22;;;;;;;3.37;2.80;;;17.30;1.00;;;;;;5086462;28;21031;-81
2022/08/07 06:07:49;;;;;;;3.57;3.10;;;17.40;1.00;;;;;;5089227;28;20485;-82
2022/08/07 06:10:22;;;;;;;3.93;3.27;;;17.50;1.00;;;;;;5086475;28;20912;-77
2022/08/07 06:12:49;;;;;;;3.13;2.83;;;17.70;1.00;;;;;;5087066;28;20513;-78
2022/08/07 06:15:21;;;;;;;6.20;3.57;;;17.80;1.00;;;;;;5087879;28;20498;-81
2022/08/07 06:17:51;;;;;;;3.47;3.17;;;17.90;1.00;;;;;;5076656;28;20485;-78
2022/08/07 06:20:23;;;;;;;3.10;2.80;;;18.00;1.00;;;;;;5083662;28;20529;-78
2022/08/07 06:22:52;;;;;;;3.57;2.97;;;18.10;1.00;;;;;;5081656;28;20508;-81
2022/08/07 06:25:23;;;;;;;3.67;3.37;;;18.20;1.00;;;;;;5084588;28;20456;-76
2022/08/07 06:27:51;;;;;;;3.47;3.10;;;18.10;1.00;;;;;;5084405;28;21079;-84
2022/08/07 06:30:22;;;;;;;3.50;2.70;;;18.10;1.00;;;;;;5086955;28;20434;-80
2022/08/07 06:32:50;;;;;;;3.63;3.10;;;18.10;1.00;;;;;;5087935;28;20510;-80
2022/08/07 06:35:22;;;;;;;3.67;3.33;;;18.10;1.00;;;;;;5086215;28;20464;-77
2022/08/07 06:37:49;;;;;;;4.80;3.20;;;18.10;1.00;;;;;;5071755;28;20486;-81
2022/08/07 06:40:21;;;;;;;4.13;2.37;;;18.20;1.00;;;;;;5081323;28;20455;-80
2022/08/07 06:42:49;;;;;;;4.63;2.67;;;18.30;1.00;;;;;;5087071;28;20549;-81
2022/08/07 06:45:23;;;;;;;2.87;2.57;;;18.40;1.00;;;;;;5077072;28;20454;-80
2022/08/07 06:47:51;;;;;;;3.30;2.40;;;18.50;1.00;;;;;;5087080;28;20993;-81
2022/08/07 06:50:23;;;;;;;4.63;2.70;;;18.60;1.00;;;;;;5089895;28;21251;-81
2022/08/07 06:52:54;;;;;;;3.40;2.47;;;18.70;1.00;;;;;;5092458;28;20549;-83
2022/08/07 06:55:25;;;;;;;5.03;2.43;;;18.80;1.00;;;;;;5090145;28;20458;-81
2022/08/07 06:57:55;;;;;;;2.80;2.60;;;18.80;1.00;;;;;;5087672;28;20471;-79
2022/08/07 07:00:23;;;;;;;2.00;1.80;;;18.90;1.00;;;;;;5085804;28;20450;-75
2022/08/07 07:02:52;;;;;;;3.50;2.87;;;19.00;1.00;;;;;;5086562;28;20981;-76
2022/08/07 07:05:23;;;;;;;3.30;2.53;;;19.00;1.00;;;;;;5087151;28;20421;-76
2022/08/07 07:07:50;;;;;;;4.13;2.67;;;19.00;1.00;;;;;;5075241;28;21017;-76
2022/08/07 07:10:26;;;;;;;3.27;2.40;;;19.00;1.00;;;;;;5074508;28;20961;-76
2022/08/07 07:12:56;;;;;;;2.83;2.00;;;19.00;1.00;;;;;;5086836;28;20481;-77
2022/08/07 07:15:27;;;;;;;2.47;2.00;;;19.10;1.00;;;;;;5087018;28;25161;-79
2022/08/07 07:18:07;;;;;;;2.60;1.90;;;19.30;1.00;;;;;;5091751;28;20745;-83
2022/08/07 07:20:41;;;;;;;3.13;1.97;;;19.40;1.00;;;;;;5090094;28;20449;-80
2022/08/07 07:23:10;;;;;;;3.00;1.90;;;19.40;1.00;;;;;;5085752;28;20471;-80
2022/08/07 07:25:43;;;;;;;3.60;1.77;;;19.50;1.00;;;;;;5092483;28;20471;-80
2022/08/07 07:28:14;;;;;;;3.33;2.40;;;19.50;1.00;;;;;;5080863;28;20484;-79
2022/08/07 07:30:47;;;;;;;2.80;1.53;;;19.60;1.00;;;;;;5100112;28;20483;-76
2022/08/07 07:33:22;;;;;;;11.17;2.47;;;19.60;1.00;;;;;;5077933;28;20479;-78
2022/08/07 07:35:52;;;;;;;2.20;2.00;;;19.70;1.00;;;;;;5083667;28;20459;-78
2022/08/07 07:38:28;;;;;;;3.40;1.90;;;19.80;1.00;;;;;;5063981;28;20461;-78
2022/08/07 07:41:03;;;;;;;2.30;2.03;;;20.00;1.00;;;;;;5083405;28;20466;-79
2022/08/07 07:43:32;;;;;;;1.93;1.83;;;20.00;1.00;;;;;;5066110;28;20454;-76
2022/08/07 07:46:04;;;;;;;3.00;2.23;;;20.10;1.00;;;;;;5067350;28;20456;-80
2022/08/07 07:48:33;;;;;;;2.13;1.87;;;20.30;1.00;;;;;;5076357;28;20456;-79
2022/08/07 07:51:04;;;;;;;2.30;2.00;;;20.40;1.00;;;;;;5067788;28;20416;-75
2022/08/07 07:53:32;;;;;;;4.67;2.67;;;20.50;1.00;;;;;;5077582;28;20438;-77
2022/08/07 07:56:03;;;;;;;2.97;2.07;;;20.50;1.00;;;;;;5081955;28;20404;-79
2022/08/07 07:58:34;;;;;;;3.40;2.20;;;20.60;1.00;;;;;;5082039;28;20462;-78
2022/08/07 08:01:05;;;;;;;2.10;1.90;;;20.80;1.00;;;;;;5065705;28;20423;-78
2022/08/07 08:03:35;;;;;;;1.77;1.33;;;21.00;1.00;;;;;;5083113;28;20459;-77
2022/08/07 08:06:07;;;;;;;2.57;1.50;;;21.10;1.00;;;;;;5076637;28;20396;-78
2022/08/07 08:08:35;;;;;;;2.00;1.60;;;21.20;1.00;;;;;;5083697;28;20468;-75
2022/08/07 08:11:07;;;;;;;1.70;1.60;;;21.30;1.00;;;;;;5082358;28;20411;-78
2022/08/07 08:13:43;;;;;;;5.30;4.80;;;21.40;1.00;;;;;;5081209;28;20462;-78
2022/08/07 08:16:16;;;;;;;3.67;1.80;;;21.50;1.00;;;;;;5080622;28;20484;-78
2022/08/07 08:18:49;;;;;;;1.90;1.70;;;21.50;1.00;;;;;;5073216;28;20475;-78
2022/08/07 08:27:08;;;;;;;3.03;1.63;;;21.50;1.00;;;;;;5085787;28;20462;-79
2022/08/07 08:29:42;;;;;;;3.30;2.17;;;21.50;1.00;;;;;;5080019;28;21224;-77
2022/08/07 08:32:12;;;;;;;2.70;2.10;;;21.70;1.00;;;;;;5070022;28;20461;-78
2022/08/07 08:34:46;;;;;;;2.07;1.80;;;21.80;1.00;;;;;;5083173;28;20443;-75
2022/08/07 08:37:20;;;;;;;2.17;1.60;;;21.90;1.00;;;;;;5072896;28;20647;-77
2022/08/07 08:39:48;;;;;;;2.87;1.90;;;22.00;1.00;;;;;;5087073;28;20985;-78
2022/08/07 08:42:25;;;;;;;6.37;1.83;;;21.90;1.00;;;;;;5084217;28;20497;-79
2022/08/07 08:45:02;;;;;;;6.10;1.70;;;21.90;1.00;;;;;;5068946;28;20450;-78
2022/08/07 08:47:42;;;;;;;6.40;1.70;;;22.00;1.00;;;;;;5086666;28;20467;-75
2022/08/07 08:50:21;;;;;;;6.67;2.30;;;22.20;1.00;;;;;;5081055;28;20476;-79
2022/08/07 08:52:53;;;;;;;6.13;1.80;;;22.40;1.00;;;;;;5072215;28;20580;-78
2022/08/07 08:55:30;;;;;;;6.33;1.87;;;22.50;1.00;;;;;;5084278;28;20438;-78
2022/08/07 08:58:08;;;;;;;6.90;1.87;;;22.60;1.00;;;;;;5076809;28;20554;-79
2022/08/07 09:00:45;;;;;;;6.83;2.10;;;22.80;1.00;;;;;;5078266;28;20516;-79
2022/08/07 09:03:25;;;;;;;5.90;2.10;;;22.90;1.00;;;;;;5086629;28;20469;-77
2022/08/07 09:06:05;;;;;;;6.97;2.30;;;22.90;1.00;;;;;;5082717;28;20532;-77
2022/08/07 09:08:49;;;;;;;6.60;2.30;;;23.10;1.00;;;;;;5084771;28;20907;-76
2022/08/07 09:11:24;;;;;;;7.80;2.00;;;23.20;1.00;;;;;;5085101;28;20471;-76
2022/08/07 09:14:06;;;;;;;7.70;2.30;;;23.40;1.00;;;;;;5083845;28;20528;-79
2022/08/07 09:16:53;;;;;;;6.97;2.73;;;23.60;1.00;;;;;;5074578;28;20542;-76
2022/08/07 09:19:49;;;;;;;6.77;1.70;;;23.70;1.00;;;;;;5083131;28;20407;-80
2022/08/07 09:22:47;;;;;;;6.87;2.03;;;23.80;1.00;;;;;;5079982;28;20976;-78
2022/08/07 09:25:26;;;;;;;6.10;1.60;;;23.90;1.00;;;;;;5085115;28;20489;-82
2022/08/07 09:28:03;;;;;;;6.60;1.90;;;24.00;1.00;;;;;;5086032;28;20463;-82
2022/08/07 09:30:46;;;;;;;6.60;1.70;;;24.20;1.00;;;;;;5078752;28;21000;-80
2022/08/07 09:33:23;;;;;;;8.67;2.70;;;24.40;1.00;;;;;;5080767;28;20466;-77
2022/08/07 09:36:02;;;;;;;6.63;1.67;;;25.10;1.00;;;;;;5076108;28;20458;-82
2022/08/07 09:38:43;;;;;;;8.70;2.10;;;26.20;1.00;;;;;;5083985;28;20463;-82
2022/08/07 09:41:23;;;;;;;5.83;1.70;;;27.90;1.00;;;;;;5081531;28;20459;-79
2022/08/07 09:44:03;;;;;;;7.00;2.20;;;29.60;1.00;;;;;;5087464;28;20931;-79
2022/08/07 09:46:56;;;;;;;7.13;1.83;;;30.80;1.00;;;;;;5071195;28;20442;-76
2022/08/07 09:49:48;;;;;;;7.10;2.20;;;31.90;1.00;;;;;;5080776;28;20440;-78
2022/08/07 09:52:25;;;;;;;8.23;2.00;;;32.80;1.00;;;;;;5081974;28;20571;-78
2022/08/07 09:55:09;;;;;;;6.17;1.67;;;33.20;1.00;;;;;;5076702;28;20515;-76
2022/08/07 09:58:23;;;;;;;6.73;1.80;;;33.50;1.00;;;;;;5084810;28;20951;-77
2022/08/07 10:01:23;;;;;;;6.80;1.60;;;34.00;1.00;;;;;;5086398;28;20463;-78
2022/08/07 10:04:23;;;;;;;5.67;1.90;;;34.30;1.00;;;;;;5078710;28;20482;-78
2022/08/07 10:07:14;;;;;;;6.10;1.70;;;34.30;1.00;;;;;;5048729;28;20474;-75
2022/08/07 10:10:07;;;;;;;5.90;1.63;;;35.10;1.00;;;;;;5086959;28;20438;-79
2022/08/07 10:13:03;;;;;;;8.03;1.70;;;35.20;1.00;;;;;;5086700;28;20462;-75
2022/08/07 10:15:49;;;;;;;6.63;2.13;;;35.50;1.00;;;;;;5086546;28;20553;-77
2022/08/07 10:18:43;;;;;;;5.90;1.27;;;35.70;1.00;;;;;;5084498;28;20562;-78
2022/08/07 10:21:32;;;;;;;6.40;2.00;;;35.80;1.00;;;;;;5073864;28;20459;-78
2022/08/07 10:24:23;;;;;;;6.50;2.03;;;36.00;1.00;;;;;;5091999;28;20426;-78
2022/08/07 10:27:06;;;;;;;5.80;1.83;;;36.30;1.00;;;;;;5083386;28;20443;-75
2022/08/07 10:29:53;;;;;;;6.47;1.70;;;36.40;1.00;;;;;;5092586;28;20440;-75
2022/08/07 10:32:43;;;;;;;5.40;1.80;;;36.30;1.00;;;;;;5082574;28;20484;-79
2022/08/07 10:35:27;;;;;;;6.53;1.80;;;35.90;1.00;;;;;;5085394;28;20985;-79
2022/08/07 10:38:11;;;;;;;6.33;1.80;;;34.20;1.00;;;;;;5086681;28;20448;-79
2022/08/07 10:40:47;;;;;;;6.60;1.63;;;32.10;1.00;;;;;;5090425;28;20454;-79
2022/08/07 10:43:27;;;;;;;7.70;2.10;;;30.30;1.00;;;;;;5083372;28;20464;-79
2022/08/07 10:46:03;;;;;;;6.60;2.10;;;29.30;1.00;;;;;;5086934;28;20462;-79
2022/08/07 10:48:47;;;;;;;6.57;1.90;;;28.70;1.00;;;;;;5080864;28;20439;-75
2022/08/07 10:51:23;;;;;;;6.63;2.13;;;28.20;1.00;;;;;;5062309;28;20600;-79
2022/08/07 10:54:04;;;;;;;7.43;2.07;;;28.20;1.00;;;;;;5093940;28;21035;-75
2022/08/07 10:56:43;;;;;;;6.30;1.70;;;28.10;1.00;;;;;;5080949;28;20478;-76
2022/08/07 10:59:38;;;;;;;7.73;2.17;;;27.70;1.00;;;;;;5087090;28;20902;-80
2022/08/07 11:02:16;;;;;;;6.03;1.63;;;27.60;1.00;;;;;;5087281;28;20454;-79
2022/08/07 11:05:01;;;;;;;5.73;1.33;;;29.70;1.00;;;;;;5088509;28;20550;-81
2022/08/07 11:07:40;;;;;;;6.30;1.40;;;31.90;1.00;;;;;;5088525;28;20921;-79
2022/08/07 11:10:18;;;;;;;6.00;1.63;;;33.70;1.00;;;;;;5084112;28;20968;-77
2022/08/07 11:12:55;;;;;;;5.10;1.33;;;34.80;1.00;;;;;;5088880;28;20524;-80
2022/08/07 11:15:27;;;;;;;7.13;1.47;;;35.90;1.00;;;;;;5087456;28;22044;-78
2022/08/07 11:18:04;;;;;;;6.60;1.63;;;36.80;1.00;;;;;;5087381;28;20474;-79
2022/08/07 11:20:41;;;;;;;5.80;1.40;;;37.50;1.00;;;;;;5084921;28;20546;-80
2022/08/07 11:23:16;;;;;;;6.17;1.90;;;38.10;1.00;;;;;;5086278;28;20475;-78
2022/08/07 11:25:55;;;;;;;6.43;2.10;;;38.60;1.00;;;;;;5084574;28;20461;-75
2022/08/07 11:28:29;;;;;;;6.03;1.63;;;39.00;1.00;;;;;;5082698;28;20445;-81
2022/08/07 11:31:06;;;;;;;4.90;1.40;;;39.10;1.00;;;;;;5087861;28;20416;-75
2022/08/07 11:33:44;;;;;;;4.90;1.57;;;39.30;1.00;;;;;;5083760;28;20449;-75
2022/08/07 11:36:30;;;;;;;5.97;2.00;;;40.00;1.00;;;;;;5081255;28;20489;-80
2022/08/07 11:39:06;;;;;;;5.93;2.20;;;40.20;1.00;;;;;;5084095;28;20431;-82
2022/08/07 11:41:42;;;;;;;4.93;1.47;;;40.90;1.00;;;;;;5083518;28;20426;-79
2022/08/07 11:44:22;;;;;;;7.30;2.40;;;40.70;1.00;;;;;;5086297;28;20418;-78
2022/08/07 11:47:00;;;;;;;4.63;1.10;;;40.40;1.00;;;;;;5091222;28;20459;-78
2022/08/07 11:49:58;;;;;;;5.00;1.60;;;40.30;1.00;;;;;;5091136;28;20534;-77
2022/08/07 11:52:49;;;;;;;4.97;1.47;;;39.70;1.00;;;;;;5087579;28;20541;-77
2022/08/07 11:55:32;;;;;;;5.00;1.50;;;39.90;1.00;;;;;;5089177;28;20431;-82
2022/08/07 11:58:09;;;;;;;4.90;1.13;;;40.20;1.00;;;;;;5087036;28;20454;-81
2022/08/07 12:00:45;;;;;;;4.73;1.20;;;39.80;1.00;;;;;;5090815;28;21274;-81
2022/08/07 12:03:36;;;;;;;4.67;1.37;;;39.90;1.00;;;;;;5091352;28;20921;-81
2022/08/07 12:06:32;;;;;;;6.93;1.60;;;40.20;1.00;;;;;;5093282;28;20466;-80
2022/08/07 12:09:05;;;;;;;5.50;1.80;;;39.90;1.00;;;;;;5093827;28;20558;-84
2022/08/07 12:11:44;;;;;;;5.83;2.03;;;40.40;1.00;;;;;;5095634;28;20466;-83
2022/08/07 12:14:17;;;;;;;5.60;1.77;;;39.70;1.00;;;;;;5093070;28;20964;-81
2022/08/07 12:16:48;;;;;;;7.60;1.87;;;37.20;1.00;;;;;;5089046;28;20481;-82
2022/08/07 12:19:23;;;;;;;6.00;1.53;;;34.90;1.00;;;;;;5089047;28;20463;-82
2022/08/07 12:22:02;;;;;;;4.93;1.50;;;33.60;1.00;;;;;;5088748;28;20540;-82
2022/08/07 12:24:39;;;;;;;6.50;2.00;;;32.30;1.00;;;;;;5090975;28;20459;-80
2022/08/07 12:27:17;;;;;;;5.13;1.63;;;31.30;1.00;;;;;;5092901;28;20513;-86
2022/08/07 12:29:54;;;;;;;10.70;1.90;;;30.30;1.00;;;;;;5094223;28;20525;-78
2022/08/07 12:32:27;;;;;;;5.60;1.43;;;29.80;1.00;;;;;;5086490;28;20455;-82
2022/08/07 12:34:59;;;;;;;5.97;1.40;;;29.40;1.00;;;;;;5090571;28;20443;-82
2022/08/07 12:37:28;;;;;;;6.40;1.63;;;28.70;1.00;;;;;;5087505;28;20496;-83
2022/08/07 12:39:59;;;;;;;8.03;1.57;;;28.50;1.00;;;;;;5106936;28;20402;-81
2022/08/07 12:42:28;;;;;;;5.70;1.67;;;28.40;1.00;;;;;;5091341;28;20443;-84
2022/08/07 12:44:58;;;;;;;5.90;1.70;;;28.70;1.00;;;;;;5092803;28;20503;-83
2022/08/07 12:47:34;;;;;;;5.40;1.70;;;30.80;1.00;;;;;;5091957;28;20497;-81
2022/08/07 12:50:12;;;;;;;6.33;1.50;;;33.50;1.00;;;;;;5092455;28;20549;-83
2022/08/07 12:52:48;;;;;;;5.47;1.57;;;34.40;1.00;;;;;;5085604;28;20422;-80
2022/08/07 12:55:23;;;;;;;7.00;1.93;;;32.70;1.00;;;;;;5084034;28;20431;-79
2022/08/07 12:57:51;;;;;;;5.43;1.40;;;31.40;1.00;;;;;;5083860;28;20443;-80
2022/08/07 13:00:19;;;;;;;6.57;1.97;;;30.50;1.00;;;;;;5083285;28;20827;-80
2022/08/07 13:03:07;;;;;;;6.60;1.83;;;31.10;1.00;;;;;;5082910;28;20543;-80
2022/08/07 13:05:50;;;;;;;5.93;2.43;;;31.20;1.00;;;;;;5083110;28;20474;-80
2022/08/07 13:08:31;;;;;;;6.27;2.13;;;32.90;1.00;;;;;;5083910;28;20628;-80
2022/08/07 13:11:08;;;;;;;5.70;1.63;;;35.30;1.00;;;;;;5079654;28;20974;-79
2022/08/07 13:13:47;;;;;;;5.37;1.50;;;36.50;1.00;;;;;;5081360;28;20491;-82
2022/08/07 13:16:24;;;;;;;5.00;1.50;;;37.90;1.00;;;;;;5084994;28;20511;-80
2022/08/07 13:19:02;;;;;;;6.00;1.93;;;38.70;1.00;;;;;;5086875;28;20550;-79
2022/08/07 13:21:34;;;;;;;5.53;1.30;;;38.90;1.00;;;;;;5087407;28;20453;-80
2022/08/07 13:24:22;;;;;;;5.57;1.53;;;38.90;1.00;;;;;;5087264;28;20475;-78
2022/08/07 13:26:55;;;;;;;5.20;1.23;;;39.80;1.00;;;;;;5089105;28;20474;-80
2022/08/07 13:29:29;;;;;;;5.70;2.30;;;40.50;1.00;;;;;;5092783;28;20673;-78
2022/08/07 13:32:06;;;;;;;5.60;1.50;;;41.00;1.00;;;;;;5082613;28;20447;-78
2022/08/07 13:34:44;;;;;;;6.27;2.23;;;41.30;1.00;;;;;;5085384;28;20478;-79
2022/08/07 13:37:23;;;;;;;5.70;1.83;;;41.20;1.00;;;;;;5087589;28;20481;-80
2022/08/07 13:40:12;;;;;;;4.97;1.40;;;41.30;1.00;;;;;;5081601;28;20458;-80